sensor_id;sensor_type;location;lat;lon;timestamp;P1;durP1;ratioP1;P2;durP2;ratioP2
68353;SDS011;55274;43.060;25.618;2023-06-10T00:01:36;13.65;;;5.45;;
68353;SDS011;55274;43.060;25.618;2023-06-10T00:04:02;12.55;;;5.20;;
68353;SDS011;55274;43.060;25.618;2023-06-10T00:06:29;13.60;;;5.30;;
68353;SDS011;55274;43.060;25.618;2023-06-10T00:09:04;13.80;;;5.88;;
68353;SDS011;55274;43.060;25.618;2023-06-10T00:11:33;9.73;;;4.72;;
68353;SDS011;55274;43.060;25.618;2023-06-10T00:13:59;10.82;;;4.70;;
68353;SDS011;55274;43.060;25.618;2023-06-10T00:16:25;11.80;;;5.10;;
68353;SDS011;55274;43.060;25.618;2023-06-10T00:18:51;12.50;;;5.53;;
68353;SDS011;55274;43.060;25.618;2023-06-10T00:21:17;11.10;;;5.32;;
68353;SDS011;55274;43.060;25.618;2023-06-10T00:23:44;8.38;;;4.45;;
68353;SDS011;55274;43.060;25.618;2023-06-10T00:26:10;9.77;;;4.95;;
68353;SDS011;55274;43.060;25.618;2023-06-10T00:28:35;10.98;;;4.88;;
68353;SDS011;55274;43.060;25.618;2023-06-10T00:31:01;9.23;;;4.32;;
68353;SDS011;55274;43.060;25.618;2023-06-10T00:33:29;9.38;;;4.97;;
68353;SDS011;55274;43.060;25.618;2023-06-10T00:35:55;12.52;;;5.47;;
68353;SDS011;55274;43.060;25.618;2023-06-10T00:38:20;10.38;;;4.70;;
68353;SDS011;55274;43.060;25.618;2023-06-10T00:40:46;10.82;;;4.78;;
68353;SDS011;55274;43.060;25.618;2023-06-10T00:43:12;12.10;;;5.70;;
68353;SDS011;55274;43.060;25.618;2023-06-10T00:45:38;11.25;;;5.38;;
68353;SDS011;55274;43.060;25.618;2023-06-10T00:48:03;13.93;;;5.53;;
68353;SDS011;55274;43.060;25.618;2023-06-10T00:50:30;11.57;;;4.50;;
68353;SDS011;55274;43.060;25.618;2023-06-10T00:52:56;9.60;;;5.13;;
68353;SDS011;55274;43.060;25.618;2023-06-10T00:55:23;8.80;;;5.13;;
68353;SDS011;55274;43.060;25.618;2023-06-10T00:57:49;10.75;;;4.93;;
68353;SDS011;55274;43.060;25.618;2023-06-10T01:00:16;11.57;;;5.68;;
68353;SDS011;55274;43.060;25.618;2023-06-10T01:02:42;12.95;;;5.43;;
68353;SDS011;55274;43.060;25.618;2023-06-10T01:05:08;12.02;;;5.32;;
68353;SDS011;55274;43.060;25.618;2023-06-10T01:07:40;9.48;;;5.53;;
68353;SDS011;55274;43.060;25.618;2023-06-10T01:12:43;12.13;;;5.30;;
68353;SDS011;55274;43.060;25.618;2023-06-10T01:15:14;12.23;;;5.38;;
68353;SDS011;55274;43.060;25.618;2023-06-10T01:18:00;16.10;;;6.03;;
68353;SDS011;55274;43.060;25.618;2023-06-10T01:20:34;10.52;;;5.47;;
68353;SDS011;55274;43.060;25.618;2023-06-10T01:23:02;16.33;;;5.45;;
68353;SDS011;55274;43.060;25.618;2023-06-10T01:25:29;10.10;;;4.82;;
68353;SDS011;55274;43.060;25.618;2023-06-10T01:31:08;14.18;;;4.97;;
68353;SDS011;55274;43.060;25.618;2023-06-10T01:33:47;12.52;;;4.35;;
68353;SDS011;55274;43.060;25.618;2023-06-10T01:36:18;10.23;;;4.85;;
68353;SDS011;55274;43.060;25.618;2023-06-10T01:38:46;16.73;;;7.10;;
68353;SDS011;55274;43.060;25.618;2023-06-10T01:41:13;20.80;;;5.82;;
68353;SDS011;55274;43.060;25.618;2023-06-10T01:43:42;11.40;;;4.88;;
68353;SDS011;55274;43.060;25.618;2023-06-10T01:46:10;11.80;;;5.15;;
68353;SDS011;55274;43.060;25.618;2023-06-10T01:48:37;10.20;;;5.03;;
68353;SDS011;55274;43.060;25.618;2023-06-10T01:51:03;17.50;;;5.95;;
68353;SDS011;55274;43.060;25.618;2023-06-10T01:53:29;11.05;;;5.30;;
68353;SDS011;55274;43.060;25.618;2023-06-10T01:55:55;10.50;;;5.57;;
68353;SDS011;55274;43.060;25.618;2023-06-10T01:58:21;11.82;;;5.55;;
68353;SDS011;55274;43.060;25.618;2023-06-10T02:00:47;12.50;;;6.45;;
68353;SDS011;55274;43.060;25.618;2023-06-10T02:03:12;15.55;;;5.78;;
68353;SDS011;55274;43.060;25.618;2023-06-10T02:05:38;12.80;;;5.35;;
68353;SDS011;55274;43.060;25.618;2023-06-10T02:08:04;12.80;;;6.22;;
68353;SDS011;55274;43.060;25.618;2023-06-10T02:10:30;12.38;;;6.70;;
68353;SDS011;55274;43.060;25.618;2023-06-10T02:12:56;15.52;;;6.07;;
68353;SDS011;55274;43.060;25.618;2023-06-10T02:15:22;13.75;;;5.95;;
68353;SDS011;55274;43.060;25.618;2023-06-10T02:17:47;15.23;;;5.45;;
68353;SDS011;55274;43.060;25.618;2023-06-10T02:20:16;10.80;;;4.95;;
68353;SDS011;55274;43.060;25.618;2023-06-10T02:22:42;12.75;;;5.85;;
68353;SDS011;55274;43.060;25.618;2023-06-10T02:25:08;18.13;;;5.88;;
68353;SDS011;55274;43.060;25.618;2023-06-10T02:27:34;15.70;;;6.07;;
68353;SDS011;55274;43.060;25.618;2023-06-10T02:30:00;14.30;;;5.47;;
68353;SDS011;55274;43.060;25.618;2023-06-10T02:32:26;18.55;;;5.25;;
68353;SDS011;55274;43.060;25.618;2023-06-10T02:34:52;18.50;;;6.07;;
68353;SDS011;55274;43.060;25.618;2023-06-10T02:37:18;13.57;;;4.70;;
68353;SDS011;55274;43.060;25.618;2023-06-10T02:39:44;20.00;;;5.10;;
68353;SDS011;55274;43.060;25.618;2023-06-10T02:42:12;23.42;;;6.35;;
68353;SDS011;55274;43.060;25.618;2023-06-10T02:44:38;12.45;;;5.53;;
68353;SDS011;55274;43.060;25.618;2023-06-10T02:47:04;10.98;;;5.18;;
68353;SDS011;55274;43.060;25.618;2023-06-10T02:49:30;13.90;;;5.05;;
68353;SDS011;55274;43.060;25.618;2023-06-10T02:51:56;17.42;;;5.38;;
68353;SDS011;55274;43.060;25.618;2023-06-10T02:54:22;18.75;;;6.15;;
68353;SDS011;55274;43.060;25.618;2023-06-10T02:56:48;14.95;;;4.80;;
68353;SDS011;55274;43.060;25.618;2023-06-10T02:59:14;14.80;;;5.50;;
68353;SDS011;55274;43.060;25.618;2023-06-10T03:01:40;11.43;;;5.13;;
68353;SDS011;55274;43.060;25.618;2023-06-10T03:04:06;12.02;;;5.22;;
68353;SDS011;55274;43.060;25.618;2023-06-10T03:06:33;8.70;;;4.80;;
68353;SDS011;55274;43.060;25.618;2023-06-10T03:09:00;11.15;;;4.47;;
68353;SDS011;55274;43.060;25.618;2023-06-10T03:11:26;27.15;;;6.10;;
68353;SDS011;55274;43.060;25.618;2023-06-10T03:13:52;12.55;;;5.28;;
68353;SDS011;55274;43.060;25.618;2023-06-10T03:16:19;8.10;;;4.00;;
68353;SDS011;55274;43.060;25.618;2023-06-10T03:18:44;12.85;;;5.38;;
68353;SDS011;55274;43.060;25.618;2023-06-10T03:21:10;11.07;;;4.10;;
68353;SDS011;55274;43.060;25.618;2023-06-10T03:23:36;10.27;;;3.97;;
68353;SDS011;55274;43.060;25.618;2023-06-10T03:26:02;8.73;;;3.90;;
68353;SDS011;55274;43.060;25.618;2023-06-10T03:28:30;18.25;;;5.45;;
68353;SDS011;55274;43.060;25.618;2023-06-10T03:30:56;16.77;;;5.28;;
68353;SDS011;55274;43.060;25.618;2023-06-10T03:33:22;11.10;;;4.63;;
68353;SDS011;55274;43.060;25.618;2023-06-10T03:35:48;14.15;;;4.22;;
68353;SDS011;55274;43.060;25.618;2023-06-10T03:38:14;11.50;;;4.32;;
68353;SDS011;55274;43.060;25.618;2023-06-10T03:40:40;13.57;;;4.20;;
68353;SDS011;55274;43.060;25.618;2023-06-10T03:43:05;9.80;;;4.97;;
68353;SDS011;55274;43.060;25.618;2023-06-10T03:45:31;8.98;;;4.57;;
68353;SDS011;55274;43.060;25.618;2023-06-10T03:47:57;12.20;;;4.75;;
68353;SDS011;55274;43.060;25.618;2023-06-10T03:50:23;11.63;;;4.63;;
68353;SDS011;55274;43.060;25.618;2023-06-10T03:52:49;16.52;;;5.53;;
68353;SDS011;55274;43.060;25.618;2023-06-10T03:55:16;8.10;;;4.53;;
68353;SDS011;55274;43.060;25.618;2023-06-10T03:57:42;7.28;;;3.67;;
68353;SDS011;55274;43.060;25.618;2023-06-10T04:00:08;6.97;;;3.42;;
68353;SDS011;55274;43.060;25.618;2023-06-10T04:02:38;12.57;;;6.32;;
68353;SDS011;55274;43.060;25.618;2023-06-10T04:05:19;23.15;;;9.02;;
68353;SDS011;55274;43.060;25.618;2023-06-10T04:07:48;8.73;;;4.03;;
68353;SDS011;55274;43.060;25.618;2023-06-10T04:10:14;9.93;;;4.30;;
68353;SDS011;55274;43.060;25.618;2023-06-10T04:12:40;15.38;;;6.28;;
68353;SDS011;55274;43.060;25.618;2023-06-10T04:15:07;26.75;;;10.80;;
68353;SDS011;55274;43.060;25.618;2023-06-10T04:17:33;10.45;;;5.20;;
68353;SDS011;55274;43.060;25.618;2023-06-10T04:19:59;16.58;;;5.65;;
68353;SDS011;55274;43.060;25.618;2023-06-10T04:22:26;9.10;;;4.57;;
68353;SDS011;55274;43.060;25.618;2023-06-10T04:24:52;22.08;;;5.70;;
68353;SDS011;55274;43.060;25.618;2023-06-10T04:27:18;19.70;;;5.90;;
68353;SDS011;55274;43.060;25.618;2023-06-10T04:29:44;29.27;;;11.82;;
68353;SDS011;55274;43.060;25.618;2023-06-10T04:32:10;17.48;;;7.75;;
68353;SDS011;55274;43.060;25.618;2023-06-10T04:34:36;21.95;;;8.77;;
68353;SDS011;55274;43.060;25.618;2023-06-10T04:37:04;26.15;;;10.77;;
68353;SDS011;55274;43.060;25.618;2023-06-10T04:39:30;24.45;;;10.85;;
68353;SDS011;55274;43.060;25.618;2023-06-10T04:41:56;15.48;;;8.30;;
68353;SDS011;55274;43.060;25.618;2023-06-10T04:44:22;25.75;;;12.35;;
68353;SDS011;55274;43.060;25.618;2023-06-10T04:46:48;33.45;;;13.60;;
68353;SDS011;55274;43.060;25.618;2023-06-10T04:49:13;29.35;;;13.85;;
68353;SDS011;55274;43.060;25.618;2023-06-10T04:51:40;28.95;;;11.45;;
68353;SDS011;55274;43.060;25.618;2023-06-10T04:54:06;23.33;;;9.32;;
68353;SDS011;55274;43.060;25.618;2023-06-10T04:56:32;27.27;;;10.15;;
68353;SDS011;55274;43.060;25.618;2023-06-10T04:58:58;24.38;;;10.38;;
68353;SDS011;55274;43.060;25.618;2023-06-10T05:01:24;23.67;;;10.30;;
68353;SDS011;55274;43.060;25.618;2023-06-10T05:03:50;34.92;;;13.10;;
68353;SDS011;55274;43.060;25.618;2023-06-10T05:06:16;30.17;;;12.23;;
68353;SDS011;55274;43.060;25.618;2023-06-10T05:08:41;26.13;;;10.68;;
68353;SDS011;55274;43.060;25.618;2023-06-10T05:11:07;17.45;;;8.32;;
68353;SDS011;55274;43.060;25.618;2023-06-10T05:13:33;17.63;;;8.57;;
68353;SDS011;55274;43.060;25.618;2023-06-10T05:15:59;16.42;;;7.55;;
68353;SDS011;55274;43.060;25.618;2023-06-10T05:18:25;20.95;;;7.35;;
68353;SDS011;55274;43.060;25.618;2023-06-10T05:20:51;8.82;;;4.40;;
68353;SDS011;55274;43.060;25.618;2023-06-10T05:23:19;7.85;;;4.18;;
68353;SDS011;55274;43.060;25.618;2023-06-10T05:25:44;8.68;;;4.50;;
68353;SDS011;55274;43.060;25.618;2023-06-10T05:28:11;9.38;;;4.97;;
68353;SDS011;55274;43.060;25.618;2023-06-10T05:30:37;10.65;;;5.05;;
68353;SDS011;55274;43.060;25.618;2023-06-10T05:33:03;18.75;;;6.45;;
68353;SDS011;55274;43.060;25.618;2023-06-10T05:35:29;15.63;;;6.50;;
68353;SDS011;55274;43.060;25.618;2023-06-10T05:37:55;19.45;;;8.38;;
68353;SDS011;55274;43.060;25.618;2023-06-10T05:40:21;17.75;;;7.88;;
68353;SDS011;55274;43.060;25.618;2023-06-10T05:42:47;15.45;;;6.55;;
68353;SDS011;55274;43.060;25.618;2023-06-10T05:45:12;16.83;;;6.85;;
68353;SDS011;55274;43.060;25.618;2023-06-10T05:47:38;23.25;;;8.55;;
68353;SDS011;55274;43.060;25.618;2023-06-10T05:50:05;28.02;;;11.75;;
68353;SDS011;55274;43.060;25.618;2023-06-10T05:52:33;25.70;;;11.82;;
68353;SDS011;55274;43.060;25.618;2023-06-10T05:54:59;19.55;;;9.15;;
68353;SDS011;55274;43.060;25.618;2023-06-10T05:57:25;24.75;;;9.02;;
68353;SDS011;55274;43.060;25.618;2023-06-10T05:59:51;17.20;;;8.60;;
68353;SDS011;55274;43.060;25.618;2023-06-10T06:02:17;16.23;;;9.32;;
68353;SDS011;55274;43.060;25.618;2023-06-10T06:04:43;21.92;;;11.15;;
68353;SDS011;55274;43.060;25.618;2023-06-10T06:07:08;18.70;;;9.73;;
68353;SDS011;55274;43.060;25.618;2023-06-10T06:09:34;10.70;;;6.97;;
68353;SDS011;55274;43.060;25.618;2023-06-10T06:12:00;15.90;;;8.20;;
68353;SDS011;55274;43.060;25.618;2023-06-10T06:14:26;19.83;;;8.45;;
68353;SDS011;55274;43.060;25.618;2023-06-10T06:16:51;25.80;;;8.13;;
68353;SDS011;55274;43.060;25.618;2023-06-10T06:19:17;25.42;;;9.27;;
68353;SDS011;55274;43.060;25.618;2023-06-10T06:21:43;19.08;;;7.88;;
68353;SDS011;55274;43.060;25.618;2023-06-10T06:24:09;16.27;;;7.72;;
68353;SDS011;55274;43.060;25.618;2023-06-10T06:26:34;15.52;;;7.00;;
68353;SDS011;55274;43.060;25.618;2023-06-10T06:29:00;14.40;;;7.35;;
68353;SDS011;55274;43.060;25.618;2023-06-10T06:31:26;14.82;;;7.88;;
68353;SDS011;55274;43.060;25.618;2023-06-10T06:33:51;12.63;;;7.78;;
68353;SDS011;55274;43.060;25.618;2023-06-10T06:36:17;16.55;;;7.60;;
68353;SDS011;55274;43.060;25.618;2023-06-10T06:38:43;14.85;;;7.43;;
68353;SDS011;55274;43.060;25.618;2023-06-10T06:41:09;17.08;;;7.70;;
68353;SDS011;55274;43.060;25.618;2023-06-10T06:43:35;32.65;;;8.38;;
68353;SDS011;55274;43.060;25.618;2023-06-10T06:46:00;22.15;;;7.95;;
68353;SDS011;55274;43.060;25.618;2023-06-10T06:48:26;12.65;;;5.78;;
68353;SDS011;55274;43.060;25.618;2023-06-10T06:50:52;26.38;;;7.82;;
68353;SDS011;55274;43.060;25.618;2023-06-10T06:53:18;17.75;;;6.70;;
68353;SDS011;55274;43.060;25.618;2023-06-10T06:55:43;71.70;;;11.38;;
68353;SDS011;55274;43.060;25.618;2023-06-10T06:58:09;27.02;;;7.32;;
68353;SDS011;55274;43.060;25.618;2023-06-10T07:00:35;14.38;;;6.30;;
68353;SDS011;55274;43.060;25.618;2023-06-10T07:03:01;21.95;;;6.20;;
68353;SDS011;55274;43.060;25.618;2023-06-10T07:05:26;26.05;;;6.13;;
68353;SDS011;55274;43.060;25.618;2023-06-10T07:07:53;24.25;;;6.95;;
68353;SDS011;55274;43.060;25.618;2023-06-10T07:10:23;21.52;;;5.38;;
68353;SDS011;55274;43.060;25.618;2023-06-10T07:12:50;17.05;;;5.15;;
68353;SDS011;55274;43.060;25.618;2023-06-10T07:15:16;11.98;;;3.92;;
68353;SDS011;55274;43.060;25.618;2023-06-10T07:17:42;13.68;;;3.25;;
68353;SDS011;55274;43.060;25.618;2023-06-10T07:20:08;8.38;;;3.38;;
68353;SDS011;55274;43.060;25.618;2023-06-10T07:22:35;7.63;;;3.72;;
68353;SDS011;55274;43.060;25.618;2023-06-10T07:25:00;5.18;;;3.08;;
68353;SDS011;55274;43.060;25.618;2023-06-10T07:27:26;10.40;;;3.50;;
68353;SDS011;55274;43.060;25.618;2023-06-10T07:29:52;7.30;;;3.17;;
68353;SDS011;55274;43.060;25.618;2023-06-10T07:32:18;5.57;;;3.33;;
68353;SDS011;55274;43.060;25.618;2023-06-10T07:34:47;6.18;;;3.33;;
68353;SDS011;55274;43.060;25.618;2023-06-10T07:37:13;9.35;;;3.08;;
68353;SDS011;55274;43.060;25.618;2023-06-10T07:39:39;12.40;;;3.72;;
68353;SDS011;55274;43.060;25.618;2023-06-10T07:42:05;7.78;;;3.55;;
68353;SDS011;55274;43.060;25.618;2023-06-10T07:44:31;9.02;;;4.07;;
68353;SDS011;55274;43.060;25.618;2023-06-10T07:46:57;7.68;;;3.70;;
68353;SDS011;55274;43.060;25.618;2023-06-10T07:49:23;7.10;;;3.63;;
68353;SDS011;55274;43.060;25.618;2023-06-10T07:51:49;6.05;;;3.33;;
68353;SDS011;55274;43.060;25.618;2023-06-10T07:54:15;9.05;;;3.88;;
68353;SDS011;55274;43.060;25.618;2023-06-10T07:56:41;5.55;;;3.60;;
68353;SDS011;55274;43.060;25.618;2023-06-10T07:59:07;6.07;;;3.53;;
68353;SDS011;55274;43.060;25.618;2023-06-10T08:01:33;10.98;;;4.45;;
68353;SDS011;55274;43.060;25.618;2023-06-10T08:04:01;11.85;;;3.92;;
68353;SDS011;55274;43.060;25.618;2023-06-10T08:06:27;9.07;;;4.15;;
68353;SDS011;55274;43.060;25.618;2023-06-10T08:08:53;5.75;;;3.38;;
68353;SDS011;55274;43.060;25.618;2023-06-10T08:11:18;6.80;;;3.22;;
68353;SDS011;55274;43.060;25.618;2023-06-10T08:13:44;10.00;;;4.97;;
68353;SDS011;55274;43.060;25.618;2023-06-10T08:16:10;7.93;;;3.33;;
68353;SDS011;55274;43.060;25.618;2023-06-10T08:18:36;6.45;;;3.35;;
68353;SDS011;55274;43.060;25.618;2023-06-10T08:21:01;5.95;;;3.20;;
68353;SDS011;55274;43.060;25.618;2023-06-10T08:23:27;8.85;;;3.63;;
68353;SDS011;55274;43.060;25.618;2023-06-10T08:25:53;12.25;;;4.10;;
68353;SDS011;55274;43.060;25.618;2023-06-10T08:28:19;7.35;;;3.38;;
68353;SDS011;55274;43.060;25.618;2023-06-10T08:30:45;4.35;;;2.75;;
68353;SDS011;55274;43.060;25.618;2023-06-10T08:33:10;4.40;;;2.63;;
68353;SDS011;55274;43.060;25.618;2023-06-10T08:35:36;5.60;;;2.85;;
68353;SDS011;55274;43.060;25.618;2023-06-10T08:38:02;4.68;;;3.00;;
68353;SDS011;55274;43.060;25.618;2023-06-10T08:40:28;5.22;;;2.72;;
68353;SDS011;55274;43.060;25.618;2023-06-10T08:45:29;8.45;;;3.50;;
68353;SDS011;55274;43.060;25.618;2023-06-10T08:47:57;8.65;;;2.83;;
68353;SDS011;55274;43.060;25.618;2023-06-10T08:50:23;5.90;;;3.10;;
68353;SDS011;55274;43.060;25.618;2023-06-10T08:52:50;8.05;;;3.35;;
68353;SDS011;55274;43.060;25.618;2023-06-10T08:55:21;11.90;;;3.40;;
68353;SDS011;55274;43.060;25.618;2023-06-10T08:58:00;9.00;;;3.28;;
68353;SDS011;55274;43.060;25.618;2023-06-10T09:00:26;7.95;;;5.18;;
68353;SDS011;55274;43.060;25.618;2023-06-10T09:02:53;5.75;;;3.40;;
68353;SDS011;55274;43.060;25.618;2023-06-10T09:05:20;7.45;;;4.57;;
68353;SDS011;55274;43.060;25.618;2023-06-10T09:07:47;8.75;;;4.70;;
68353;SDS011;55274;43.060;25.618;2023-06-10T09:10:14;6.38;;;3.78;;
68353;SDS011;55274;43.060;25.618;2023-06-10T09:12:40;7.47;;;3.63;;
68353;SDS011;55274;43.060;25.618;2023-06-10T09:15:06;9.45;;;4.70;;
68353;SDS011;55274;43.060;25.618;2023-06-10T09:17:33;3.35;;;2.78;;
68353;SDS011;55274;43.060;25.618;2023-06-10T09:20:02;8.48;;;3.70;;
68353;SDS011;55274;43.060;25.618;2023-06-10T09:22:28;6.75;;;3.20;;
68353;SDS011;55274;43.060;25.618;2023-06-10T09:27:30;4.15;;;2.55;;
68353;SDS011;55274;43.060;25.618;2023-06-10T09:29:59;6.03;;;2.90;;
68353;SDS011;55274;43.060;25.618;2023-06-10T09:32:25;9.00;;;3.40;;
68353;SDS011;55274;43.060;25.618;2023-06-10T09:34:52;4.40;;;2.90;;
68353;SDS011;55274;43.060;25.618;2023-06-10T09:37:22;5.38;;;2.95;;
68353;SDS011;55274;43.060;25.618;2023-06-10T09:40:02;3.92;;;2.33;;
68353;SDS011;55274;43.060;25.618;2023-06-10T09:42:33;6.93;;;3.30;;
68353;SDS011;55274;43.060;25.618;2023-06-10T09:45:01;5.85;;;3.03;;
68353;SDS011;55274;43.060;25.618;2023-06-10T09:47:27;5.25;;;3.03;;
68353;SDS011;55274;43.060;25.618;2023-06-10T09:49:54;12.05;;;4.13;;
68353;SDS011;55274;43.060;25.618;2023-06-10T09:52:23;5.18;;;3.40;;
68353;SDS011;55274;43.060;25.618;2023-06-10T09:54:53;11.10;;;3.53;;
68353;SDS011;55274;43.060;25.618;2023-06-10T09:57:23;8.15;;;4.10;;
68353;SDS011;55274;43.060;25.618;2023-06-10T09:59:53;6.85;;;4.00;;
68353;SDS011;55274;43.060;25.618;2023-06-10T10:02:19;6.22;;;4.32;;
68353;SDS011;55274;43.060;25.618;2023-06-10T10:04:45;7.30;;;3.58;;
68353;SDS011;55274;43.060;25.618;2023-06-10T10:07:11;5.30;;;4.05;;
68353;SDS011;55274;43.060;25.618;2023-06-10T10:09:38;6.40;;;3.45;;
68353;SDS011;55274;43.060;25.618;2023-06-10T10:14:43;19.08;;;4.00;;
68353;SDS011;55274;43.060;25.618;2023-06-10T10:17:11;6.97;;;3.63;;
68353;SDS011;55274;43.060;25.618;2023-06-10T10:19:43;4.90;;;2.80;;
68353;SDS011;55274;43.060;25.618;2023-06-10T10:22:20;6.47;;;3.42;;
68353;SDS011;55274;43.060;25.618;2023-06-10T10:24:52;11.95;;;4.43;;
68353;SDS011;55274;43.060;25.618;2023-06-10T10:27:25;10.98;;;3.65;;
68353;SDS011;55274;43.060;25.618;2023-06-10T10:29:53;7.85;;;3.50;;
68353;SDS011;55274;43.060;25.618;2023-06-10T10:32:25;7.10;;;3.85;;
68353;SDS011;55274;43.060;25.618;2023-06-10T10:35:12;9.43;;;3.88;;
68353;SDS011;55274;43.060;25.618;2023-06-10T10:37:44;36.83;;;6.03;;
68353;SDS011;55274;43.060;25.618;2023-06-10T10:40:10;29.52;;;5.10;;
68353;SDS011;55274;43.060;25.618;2023-06-10T10:42:37;6.05;;;2.97;;
68353;SDS011;55274;43.060;25.618;2023-06-10T10:45:03;9.63;;;3.80;;
68353;SDS011;55274;43.060;25.618;2023-06-10T10:47:30;5.30;;;3.00;;
68353;SDS011;55274;43.060;25.618;2023-06-10T10:49:58;6.88;;;3.50;;
68353;SDS011;55274;43.060;25.618;2023-06-10T10:52:25;9.20;;;3.50;;
68353;SDS011;55274;43.060;25.618;2023-06-10T10:54:52;9.02;;;3.10;;
68353;SDS011;55274;43.060;25.618;2023-06-10T10:57:20;4.07;;;2.65;;
68353;SDS011;55274;43.060;25.618;2023-06-10T11:02:37;5.05;;;2.70;;
68353;SDS011;55274;43.060;25.618;2023-06-10T11:05:13;4.75;;;2.67;;
68353;SDS011;55274;43.060;25.618;2023-06-10T11:07:51;4.38;;;2.88;;
68353;SDS011;55274;43.060;25.618;2023-06-10T11:10:28;10.30;;;3.42;;
68353;SDS011;55274;43.060;25.618;2023-06-10T11:12:58;5.07;;;3.20;;
68353;SDS011;55274;43.060;25.618;2023-06-10T11:15:25;4.13;;;3.20;;
68353;SDS011;55274;43.060;25.618;2023-06-10T11:20:56;5.95;;;3.10;;
68353;SDS011;55274;43.060;25.618;2023-06-10T11:31:18;4.55;;;3.08;;
68353;SDS011;55274;43.060;25.618;2023-06-10T11:33:46;5.45;;;2.88;;
68353;SDS011;55274;43.060;25.618;2023-06-10T11:36:13;10.70;;;4.47;;
68353;SDS011;55274;43.060;25.618;2023-06-10T11:38:40;7.75;;;4.80;;
68353;SDS011;55274;43.060;25.618;2023-06-10T11:41:07;8.88;;;5.85;;
68353;SDS011;55274;43.060;25.618;2023-06-10T11:43:33;30.58;;;10.20;;
68353;SDS011;55274;43.060;25.618;2023-06-10T11:45:59;8.73;;;3.45;;
68353;SDS011;55274;43.060;25.618;2023-06-10T11:48:26;7.72;;;3.25;;
68353;SDS011;55274;43.060;25.618;2023-06-10T11:50:55;6.60;;;3.47;;
68353;SDS011;55274;43.060;25.618;2023-06-10T11:53:21;4.55;;;3.53;;
68353;SDS011;55274;43.060;25.618;2023-06-10T11:55:48;6.22;;;3.80;;
68353;SDS011;55274;43.060;25.618;2023-06-10T11:58:18;6.30;;;3.72;;
68353;SDS011;55274;43.060;25.618;2023-06-10T12:00:46;5.70;;;3.75;;
68353;SDS011;55274;43.060;25.618;2023-06-10T12:03:15;4.10;;;3.45;;
68353;SDS011;55274;43.060;25.618;2023-06-10T12:05:58;15.77;;;4.30;;
68353;SDS011;55274;43.060;25.618;2023-06-10T12:08:25;5.60;;;3.40;;
68353;SDS011;55274;43.060;25.618;2023-06-10T12:10:52;7.57;;;3.90;;
68353;SDS011;55274;43.060;25.618;2023-06-10T12:13:19;4.95;;;3.70;;
68353;SDS011;55274;43.060;25.618;2023-06-10T12:15:45;5.55;;;3.42;;
68353;SDS011;55274;43.060;25.618;2023-06-10T12:18:21;24.70;;;5.22;;
68353;SDS011;55274;43.060;25.618;2023-06-10T12:20:48;6.20;;;3.80;;
68353;SDS011;55274;43.060;25.618;2023-06-10T12:23:15;5.68;;;3.65;;
68353;SDS011;55274;43.060;25.618;2023-06-10T12:25:49;4.07;;;3.50;;
68353;SDS011;55274;43.060;25.618;2023-06-10T12:28:17;4.95;;;3.42;;
68353;SDS011;55274;43.060;25.618;2023-06-10T12:30:45;4.72;;;3.47;;
68353;SDS011;55274;43.060;25.618;2023-06-10T12:33:21;7.10;;;3.60;;
68353;SDS011;55274;43.060;25.618;2023-06-10T12:35:50;4.75;;;3.22;;
68353;SDS011;55274;43.060;25.618;2023-06-10T12:41:04;4.78;;;2.72;;
68353;SDS011;55274;43.060;25.618;2023-06-10T12:43:30;5.72;;;3.42;;
68353;SDS011;55274;43.060;25.618;2023-06-10T12:46:07;6.18;;;3.83;;
68353;SDS011;55274;43.060;25.618;2023-06-10T12:48:34;5.63;;;3.20;;
68353;SDS011;55274;43.060;25.618;2023-06-10T12:51:00;7.72;;;3.13;;
68353;SDS011;55274;43.060;25.618;2023-06-10T12:53:26;5.90;;;3.33;;
68353;SDS011;55274;43.060;25.618;2023-06-10T12:55:52;5.18;;;2.88;;
68353;SDS011;55274;43.060;25.618;2023-06-10T12:58:21;6.18;;;3.20;;
68353;SDS011;55274;43.060;25.618;2023-06-10T13:00:47;6.53;;;3.10;;
68353;SDS011;55274;43.060;25.618;2023-06-10T13:03:14;4.95;;;2.58;;
68353;SDS011;55274;43.060;25.618;2023-06-10T13:05:40;5.88;;;3.15;;
68353;SDS011;55274;43.060;25.618;2023-06-10T13:08:06;5.90;;;2.85;;
68353;SDS011;55274;43.060;25.618;2023-06-10T13:10:33;9.07;;;3.55;;
68353;SDS011;55274;43.060;25.618;2023-06-10T13:13:00;4.85;;;3.10;;
68353;SDS011;55274;43.060;25.618;2023-06-10T13:15:27;6.45;;;3.25;;
68353;SDS011;55274;43.060;25.618;2023-06-10T13:17:52;8.52;;;3.90;;
68353;SDS011;55274;43.060;25.618;2023-06-10T13:20:18;12.95;;;3.80;;
68353;SDS011;55274;43.060;25.618;2023-06-10T13:22:45;10.27;;;3.47;;
68353;SDS011;55274;43.060;25.618;2023-06-10T13:25:12;5.68;;;3.63;;
68353;SDS011;55274;43.060;25.618;2023-06-10T13:27:38;6.75;;;3.42;;
68353;SDS011;55274;43.060;25.618;2023-06-10T13:30:07;5.68;;;3.55;;
68353;SDS011;55274;43.060;25.618;2023-06-10T13:32:37;6.45;;;3.33;;
68353;SDS011;55274;43.060;25.618;2023-06-10T13:35:03;4.70;;;3.22;;
68353;SDS011;55274;43.060;25.618;2023-06-10T13:37:29;6.28;;;3.25;;
68353;SDS011;55274;43.060;25.618;2023-06-10T13:39:55;8.32;;;3.25;;
68353;SDS011;55274;43.060;25.618;2023-06-10T13:42:21;5.70;;;3.65;;
68353;SDS011;55274;43.060;25.618;2023-06-10T13:44:47;6.30;;;3.45;;
68353;SDS011;55274;43.060;25.618;2023-06-10T13:47:14;8.95;;;3.45;;
68353;SDS011;55274;43.060;25.618;2023-06-10T13:49:40;6.20;;;3.90;;
68353;SDS011;55274;43.060;25.618;2023-06-10T13:52:06;5.45;;;3.30;;
68353;SDS011;55274;43.060;25.618;2023-06-10T13:54:32;7.00;;;3.38;;
68353;SDS011;55274;43.060;25.618;2023-06-10T13:56:58;5.63;;;3.67;;
68353;SDS011;55274;43.060;25.618;2023-06-10T13:59:25;5.75;;;3.42;;
68353;SDS011;55274;43.060;25.618;2023-06-10T14:01:51;9.27;;;3.70;;
68353;SDS011;55274;43.060;25.618;2023-06-10T14:04:17;6.65;;;3.30;;
68353;SDS011;55274;43.060;25.618;2023-06-10T14:06:42;10.45;;;3.90;;
68353;SDS011;55274;43.060;25.618;2023-06-10T14:09:08;7.82;;;3.30;;
68353;SDS011;55274;43.060;25.618;2023-06-10T14:11:34;6.47;;;3.10;;
68353;SDS011;55274;43.060;25.618;2023-06-10T14:14:00;5.25;;;3.50;;
68353;SDS011;55274;43.060;25.618;2023-06-10T14:16:26;8.73;;;3.63;;
68353;SDS011;55274;43.060;25.618;2023-06-10T14:18:52;13.63;;;4.15;;
68353;SDS011;55274;43.060;25.618;2023-06-10T14:21:18;28.30;;;5.35;;
68353;SDS011;55274;43.060;25.618;2023-06-10T14:23:44;40.20;;;6.07;;
68353;SDS011;55274;43.060;25.618;2023-06-10T14:26:10;11.07;;;3.85;;
68353;SDS011;55274;43.060;25.618;2023-06-10T14:28:36;9.95;;;3.60;;
68353;SDS011;55274;43.060;25.618;2023-06-10T14:31:02;9.93;;;4.20;;
68353;SDS011;55274;43.060;25.618;2023-06-10T14:33:28;10.45;;;3.63;;
68353;SDS011;55274;43.060;25.618;2023-06-10T14:35:54;16.17;;;4.00;;
68353;SDS011;55274;43.060;25.618;2023-06-10T14:38:20;10.35;;;4.43;;
68353;SDS011;55274;43.060;25.618;2023-06-10T14:40:45;7.75;;;4.95;;
68353;SDS011;55274;43.060;25.618;2023-06-10T14:43:11;21.80;;;5.03;;
68353;SDS011;55274;43.060;25.618;2023-06-10T14:45:38;10.35;;;5.20;;
68353;SDS011;55274;43.060;25.618;2023-06-10T14:48:04;10.75;;;6.20;;
68353;SDS011;55274;43.060;25.618;2023-06-10T14:50:31;12.07;;;6.60;;
68353;SDS011;55274;43.060;25.618;2023-06-10T14:52:58;11.70;;;6.28;;
68353;SDS011;55274;43.060;25.618;2023-06-10T14:55:23;7.43;;;4.07;;